Hildegaard — C6QU3 — position and weather

sailwx.info

Track history (hours):
 
Tides and Currents Weather Stations Pressure Air Temp Water Temp Dewpoint Dewpoint Depression Visibility Wind Speed Wind Dir Waves Ship Positions

Hildegaard

Last reported at 2015-May-28 20:30 UTC. Time now 2015-May-29 02:12 UTC.
Position N 53°23' W 003°00'.

Length 248 m; draft 11.9 m.

Type: Ship (hazmat cat A). MMSI: 308574000.

Date/timePositionNaut miles runAvg speedWind from/ knotsBaromVisibWave heightAir tempDewpointWater temp
2015-May-28 20:30N 53°23' W 003°00'0 0.0
2015-May-28 19:33N 53°23' W 003°00'0 0.0
2015-May-28 18:33N 53°23' W 003°00'0 0.0
2015-May-28 17:33N 53°23' W 003°00'0 0.0
2015-May-28 16:33N 53°23' W 003°00'0 0.0
2015-May-28 15:30N 53°23' W 003°00'0 0.0
2015-May-28 14:33N 53°23' W 003°00'0 0.0
2015-May-28 13:30N 53°23' W 003°00'0 0.0
2015-May-28 12:33N 53°23' W 003°00'0 0.0
2015-May-28 11:30N 53°23' W 003°00'0 0.0
2015-May-28 10:30N 53°23' W 003°00'0 0.0
2015-May-28 09:33N 53°23' W 003°00'0 0.0
2015-May-28 08:33N 53°23' W 003°00'0 0.0
2015-May-28 07:33N 53°23' W 003°00'2 2.2
2015-May-28 06:33N 53°25' W 003°01'9 8.8
2015-May-28 05:33N 53°32' W 003°10'9 9.5
2015-May-28 04:33N 53°31' W 003°26'10 9.9
2015-May-28 03:33N 53°31' W 003°43'10 9.9
2015-May-28 02:33N 53°29' W 003°59'9 9.1
2015-May-28 01:33N 53°27' W 004°14'4 0.4
2015-May-27 14:26N 53°24' W 004°09'0 0.0
2015-May-27 08:29N 53°24' W 004°09'0 0.0
2015-May-27 07:20N 53°24' W 004°09'0 0.0
2015-May-26 23:32N 53°24' W 004°09'0 0.0
2015-May-26 22:29N 53°24' W 004°09'0 0.0
2015-May-26 21:29N 53°24' W 004°09'0 0.0
2015-May-26 20:32N 53°24' W 004°09'0 0.0
2015-May-26 19:14N 53°24' W 004°09'0 0.1
2015-May-26 18:32N 53°24' W 004°09'0 0.0
2015-May-26 10:20N 53°24' W 004°09'0 0.1
2015-May-26 09:32N 53°24' W 004°09'0 0.0
2015-May-26 08:32N 53°24' W 004°09'0 0.0
2015-May-26 07:29N 53°24' W 004°09'0 0.1
2015-May-26 06:29N 53°24' W 004°09'0 0.1
2015-May-26 02:08N 53°24' W 004°09'0 0.1
2015-May-25 21:32N 53°24' W 004°09'0 0.1
2015-May-25 20:32N 53°24' W 004°09'0 0.0
2015-May-25 19:32N 53°24' W 004°09'0 0.0
2015-May-25 18:29N 53°24' W 004°09'0 0.1
2015-May-25 17:26N 53°24' W 004°09'0 0.0
2015-May-25 08:29N 53°24' W 004°09'0 0.0
2015-May-25 06:33N 53°24' W 004°09'0 0.0
2015-May-25 05:24N 53°24' W 004°09'0 0.0
2015-May-24 22:17N 53°24' W 004°09'0 0.1
2015-May-24 21:26N 53°24' W 004°09'0 0.1
2015-May-24 20:11N 53°24' W 004°09'0 0.1
2015-May-24 19:33N 53°24' W 004°09'0 0.0
2015-May-24 18:33N 53°24' W 004°09'0 0.0
2015-May-24 17:33N 53°24' W 004°09'0 0.1
2015-May-24 16:34N 53°24' W 004°09'0 0.1
2015-May-24 14:32N 53°24' W 004°09'1 0.2
2015-May-24 09:33N 53°25' W 004°09'1310.5
2015-May-24 08:18N 53°34' W 004°25'2211.5
2015-May-24 06:26N 53°51' W 004°48'3311.6
2015-May-24 03:33N 54°22' W 005°09'1212.1
2015-May-24 02:32N 54°33' W 005°16'1313.2
2015-May-24 01:33N 54°46' W 005°23'1413.6
2015-May-24 00:33N 54°57' W 005°37'1914.1
2015-May-23 23:11N 55°12' W 005°56'914.3
2015-May-23 22:33N 55°20' W 006°05'1312.6
2015-May-23 21:33N 55°25' W 006°26'1212.0
2015-May-23 20:33N 55°30' W 006°44'1110.4
2015-May-23 19:32N 55°38' W 006°57'1010.3
2015-May-23 18:33N 55°46' W 007°07'168 9.7
2015-May-23 01:15N 58°33' W 006°37'16 9.5
2015-May-22 23:33N 58°40' W 006°09'9 9.5
2015-May-22 22:33N 58°41' W 005°51'9 9.1
2015-May-22 21:33N 58°43' W 005°33'41 9.2
2015-May-22 17:04N 58°44' W 004°14'510.1
2015-May-22 16:33N 58°44' W 004°04'10 9.8
2015-May-22 15:33N 58°44' W 003°45'10 9.9
2015-May-22 14:33N 58°44' W 003°26'9 8.7
2015-May-22 13:33N 58°43' W 003°10'5 5.3
2015-May-22 12:34N 58°41' W 003°01'5 5.3
2015-May-22 11:33N 58°37' W 002°54'10 9.5
2015-May-22 10:33N 58°30' W 002°42'4911.8
2015-May-22 06:22N 57°51' W 001°44'1012.1
2015-May-22 05:33N 57°43' W 001°34'1110.8
2015-May-22 04:33N 57°32' W 001°29'1110.5
2015-May-22 03:33N 57°22' W 001°29'1110.4
2015-May-22 02:28N 57°10' W 001°27'  
Track history (hours):
 
Tides and Currents Weather Stations Pressure Air Temp Water Temp Dewpoint Dewpoint Depression Visibility Wind Speed Wind Dir Waves Ship Positions

Hildegaard

Last reported at 2015-May-28 20:30 UTC. Time now 2015-May-29 02:12 UTC.
Position N 53°23' W 003°00'.

Length 248 m; draft 11.9 m.

Type: Ship (hazmat cat A). MMSI: 308574000.

Date/timePositionNaut miles runAvg speedWind from/ knotsBaromVisibWave heightAir tempDewpointWater temp
2015-May-28 20:30N 53°23' W 003°00'0 0.0
2015-May-28 19:33N 53°23' W 003°00'0 0.0
2015-May-28 18:33N 53°23' W 003°00'0 0.0
2015-May-28 17:33N 53°23' W 003°00'0 0.0
2015-May-28 16:33N 53°23' W 003°00'0 0.0
2015-May-28 15:30N 53°23' W 003°00'0 0.0
2015-May-28 14:33N 53°23' W 003°00'0 0.0
2015-May-28 13:30N 53°23' W 003°00'0 0.0
2015-May-28 12:33N 53°23' W 003°00'0 0.0
2015-May-28 11:30N 53°23' W 003°00'0 0.0
2015-May-28 10:30N 53°23' W 003°00'0 0.0
2015-May-28 09:33N 53°23' W 003°00'0 0.0
2015-May-28 08:33N 53°23' W 003°00'0 0.0
2015-May-28 07:33N 53°23' W 003°00'2 2.2
2015-May-28 06:33N 53°25' W 003°01'9 8.8
2015-May-28 05:33N 53°32' W 003°10'9 9.5
2015-May-28 04:33N 53°31' W 003°26'10 9.9
2015-May-28 03:33N 53°31' W 003°43'10 9.9
2015-May-28 02:33N 53°29' W 003°59'9 9.1
2015-May-28 01:33N 53°27' W 004°14'4 0.4
2015-May-27 14:26N 53°24' W 004°09'0 0.0
2015-May-27 08:29N 53°24' W 004°09'0 0.0
2015-May-27 07:20N 53°24' W 004°09'0 0.0
2015-May-26 23:32N 53°24' W 004°09'0 0.0
2015-May-26 22:29N 53°24' W 004°09'0 0.0
2015-May-26 21:29N 53°24' W 004°09'0 0.0
2015-May-26 20:32N 53°24' W 004°09'0 0.0
2015-May-26 19:14N 53°24' W 004°09'0 0.1
2015-May-26 18:32N 53°24' W 004°09'0 0.0
2015-May-26 10:20N 53°24' W 004°09'0 0.1
2015-May-26 09:32N 53°24' W 004°09'0 0.0
2015-May-26 08:32N 53°24' W 004°09'0 0.0
2015-May-26 07:29N 53°24' W 004°09'0 0.1
2015-May-26 06:29N 53°24' W 004°09'0 0.1
2015-May-26 02:08N 53°24' W 004°09'0 0.1
2015-May-25 21:32N 53°24' W 004°09'0 0.1
2015-May-25 20:32N 53°24' W 004°09'0 0.0
2015-May-25 19:32N 53°24' W 004°09'0 0.0
2015-May-25 18:29N 53°24' W 004°09'0 0.1
2015-May-25 17:26N 53°24' W 004°09'0 0.0
2015-May-25 08:29N 53°24' W 004°09'0 0.0
2015-May-25 06:33N 53°24' W 004°09'0 0.0
2015-May-25 05:24N 53°24' W 004°09'0 0.0
2015-May-24 22:17N 53°24' W 004°09'0 0.1
2015-May-24 21:26N 53°24' W 004°09'0 0.1
2015-May-24 20:11N 53°24' W 004°09'0 0.1
2015-May-24 19:33N 53°24' W 004°09'0 0.0
2015-May-24 18:33N 53°24' W 004°09'0 0.0
2015-May-24 17:33N 53°24' W 004°09'0 0.1
2015-May-24 16:34N 53°24' W 004°09'0 0.1
2015-May-24 14:32N 53°24' W 004°09'1 0.2
2015-May-24 09:33N 53°25' W 004°09'1310.5
2015-May-24 08:18N 53°34' W 004°25'2211.5
2015-May-24 06:26N 53°51' W 004°48'3311.6
2015-May-24 03:33N 54°22' W 005°09'1212.1
2015-May-24 02:32N 54°33' W 005°16'1313.2
2015-May-24 01:33N 54°46' W 005°23'1413.6
2015-May-24 00:33N 54°57' W 005°37'1914.1
2015-May-23 23:11N 55°12' W 005°56'914.3
2015-May-23 22:33N 55°20' W 006°05'1312.6
2015-May-23 21:33N 55°25' W 006°26'1212.0
2015-May-23 20:33N 55°30' W 006°44'1110.4
2015-May-23 19:32N 55°38' W 006°57'1010.3
2015-May-23 18:33N 55°46' W 007°07'168 9.7
2015-May-23 01:15N 58°33' W 006°37'16 9.5
2015-May-22 23:33N 58°40' W 006°09'9 9.5
2015-May-22 22:33N 58°41' W 005°51'9 9.1
2015-May-22 21:33N 58°43' W 005°33'41 9.2
2015-May-22 17:04N 58°44' W 004°14'510.1
2015-May-22 16:33N 58°44' W 004°04'10 9.8
2015-May-22 15:33N 58°44' W 003°45'10 9.9
2015-May-22 14:33N 58°44' W 003°26'9 8.7
2015-May-22 13:33N 58°43' W 003°10'5 5.3
2015-May-22 12:34N 58°41' W 003°01'5 5.3
2015-May-22 11:33N 58°37' W 002°54'10 9.5
2015-May-22 10:33N 58°30' W 002°42'4911.8
2015-May-22 06:22N 57°51' W 001°44'1012.1
2015-May-22 05:33N 57°43' W 001°34'1110.8
2015-May-22 04:33N 57°32' W 001°29'1110.5
2015-May-22 03:33N 57°22' W 001°29'1110.4
2015-May-22 02:28N 57°10' W 001°27'  

Dump ship's entire track history